METAR Data
IDs: Format: Raw Decoded Include TAF

Data at: 1526 UTC 24 Aug 2019

PFEL 241456Z AUTO 35004KT 10SM CLR 06/01 A2977 RMK AO2 SLP082 T00610011 50007
PFEL 241356Z AUTO 29008KT 10SM CLR 08/01 A2977 RMK AO2 SLP084 T00780011
PFEL 241256Z AUTO 33004KT 10SM CLR 08/01 A2977 RMK AO2 SLP082 T00780011
PFEL 241156Z AUTO 00000KT 10SM CLR 07/02 A2975 RMK AO2 SLP075 T00720017 10117 20067 58003
PFEL 241056Z AUTO 00000KT 10SM CLR 07/02 A2976 RMK AO2 SLP078 T00720022
PFEL 240956Z AUTO 33006KT 10SM CLR 08/02 A2975 RMK AO2 SLP076 T00830022
PFEL 240856Z AUTO 34006KT 10SM CLR 08/02 A2975 RMK AO2 SLP077 T00830022 401390067 52013
PFEL 240756Z AUTO 34009KT 10SM CLR 10/02 A2974 RMK AO2 SLP072 T01000022
PFEL 240656Z AUTO 36008KT 10SM CLR 10/03 A2973 RMK AO2 SLP071 T01000033
PFEL 240556Z AUTO 01009KT 10SM CLR 12/04 A2972 RMK AO2 SLP065 60000 T01170039 10139 20111 58008
PFEL 240456Z AUTO 02010KT 10SM CLR 12/04 A2972 RMK AO2 SLP066 T01220039
PFEL 240356Z AUTO 01011KT 10SM CLR 13/04 A2976 RMK AO2 SLP081 T01280044
PFEL 240256Z AUTO 01012G16KT 10SM BKN039 13/06 A2974 RMK AO2 SLP073 60000 T01280056 56000
PFEL 240156Z AUTO 04006KT 10SM SCT036 BKN043 13/06 A2975 RMK AO2 SLP075 T01330061
PFEL 240118Z AUTO 06005KT 10SM SCT031 OVC040 13/07 A2978 RMK AO2 PRESRR
PFEL 240105Z AUTO 00000KT 9SM BKN029 OVC037 13/08 A2976 RMK AO2
PFEL 240056Z AUTO 00000KT 10SM SCT027 OVC037 13/08 A2974 RMK AO2 RAB22E53 SLP071 P0000 T01280083
PFEL 240049Z AUTO 00000KT 10SM -RA BKN027 OVC033 13/08 A2975 RMK AO2 RAB22 P0000
PFEL 240023Z AUTO 09007KT 040V100 8SM -RA FEW019 SCT027 OVC037 13/08 A2974 RMK AO2 RAB22 P0000
PFEL 240010Z AUTO 00000KT 10SM FEW019 BKN027 OVC040 12/09 A2975 RMK AO2
PFEL 232356Z AUTO 05007KT 10SM FEW029 OVC040 13/08 A2974 RMK AO2 SLP074 T01330078 10139 20094 51009
PFEL 232256Z AUTO 31007KT 10SM OVC042 13/08 A2974 RMK AO2 SLP071 T01280078
PFEL 232156Z AUTO 33008KT 10SM BKN033 OVC042 12/08 A2973 RMK AO2 SLP068 T01220078
PFEL 232056Z AUTO 29008KT 250V320 10SM OVC033 11/07 A2972 RMK AO2 SLP065 T01060067 51002
PFEL 231956Z AUTO 30009KT 10SM OVC033 11/07 A2972 RMK AO2 SLP065 T01060067
PFEL 231856Z AUTO 31009KT 10SM OVC035 11/06 A2972 RMK AO2 SLP066 T01060061
PFEL 231756Z AUTO 29008KT 10SM OVC041 09/06 A2971 RMK AO2 SLP063 T00940056 10094 20067 50004
PFEL 231656Z AUTO 29007KT 10SM OVC047 09/04 A2971 RMK AO2 SLP063 T00890039
PFEL 231556Z AUTO 00000KT 10SM BKN070 OVC100 08/03 A2972 RMK AO2 SLP064 T00830033
PFEL 231456Z AUTO 36005KT 10SM FEW120 07/04 A2970 RMK AO2 SLP059 T00720039 50002
PFEL 231356Z AUTO 29009KT 10SM BKN110 08/04 A2971 RMK AO2 SLP061 T00780039
PFEL 231256Z AUTO 01005KT 10SM BKN120 07/04 A2970 RMK AO2 SLP058 T00670039
PFEL 231156Z AUTO 33003KT 10SM CLR 07/03 A2969 RMK AO2 SLP057 T00720033 10117 20072 56001
PFEL 231056Z AUTO 00000KT 10SM CLR 08/03 A2970 RMK AO2 SLP057 T00780033
PFEL 230956Z AUTO 00000KT 10SM CLR 08/03 A2969 RMK AO2 SLP057 T00830033
PFEL 230856Z AUTO 33008KT 10SM CLR 09/04 A2970 RMK AO2 SLP058 T00940039 401610072 53010
PFEL 230756Z AUTO 33008KT 10SM CLR 09/04 A2968 RMK AO2 SLP054 T00940044
PFEL 230656Z AUTO 35006KT 10SM CLR 11/04 A2968 RMK AO2 SLP051 T01060044
PFEL 230556Z AUTO 01011KT 10SM CLR 12/04 A2967 RMK AO2 SLP048 T01170044 10161 20117 58016
PFEL 230456Z AUTO 01011KT 10SM FEW055 13/05 A2968 RMK AO2 SLP051 T01330050
PFEL 230356Z AUTO 01010KT 10SM BKN060 16/05 A2972 RMK AO2 SLP064 T01560050